Time;durP1;ratioP1;P1;durP2;ratioP2;P2;SDS_P1;SDS_P2;PMS_P1;PMS_P2;Temp;Humidity;BMP_temperature;BMP_pressure;BME280_temperature;BME280_humidity;BME280_pressure;Samples;Min_cycle;Max_cycle;Signal;HPM_P1;HPM_P2
2022/03/05 00:01:54;;;;;;;14.20;7.05;;;;;;;-144.19;100.00;78867.16;6187528;23;20021;-91
2022/03/05 00:04:20;;;;;;;17.10;7.68;;;;;;;-144.19;100.00;78863.22;6188786;23;20020;-87
2022/03/05 00:06:48;;;;;;;14.33;7.73;;;;;;;-144.19;100.00;78863.22;6188374;23;20021;-87
2022/03/05 00:09:14;;;;;;;17.80;8.05;;;;;;;-144.19;100.00;78875.06;6188325;23;20242;-86
2022/03/05 00:11:40;;;;;;;12.40;7.00;;;;;;;-144.19;100.00;78863.22;6187958;23;20020;-87
2022/03/05 00:14:07;;;;;;;12.70;7.18;;;;;;;-144.19;100.00;78882.94;6187533;23;20023;-89
2022/03/05 00:16:34;;;;;;;14.50;8.07;;;;;;;-144.19;100.00;78882.94;6187813;23;20490;-89
2022/03/05 00:19:00;;;;;;;11.68;7.15;;;;;;;-144.19;100.00;78902.63;6187680;23;20025;-87
2022/03/05 00:21:26;;;;;;;13.75;7.50;;;;;;;-144.19;100.00;78922.31;6187891;23;20020;-89
2022/03/05 00:23:53;;;;;;;13.50;7.13;;;;;;;-144.19;100.00;78918.38;6187418;23;20382;-90
2022/03/05 00:26:20;;;;;;;11.63;6.73;;;;;;;-144.19;100.00;78914.44;6187463;23;20028;-89
2022/03/05 00:28:46;;;;;;;16.40;8.25;;;;;;;-144.19;100.00;78908.53;6214050;23;20262;-89
2022/03/05 00:31:12;;;;;;;15.10;7.93;;;;;;;-144.19;100.00;78890.81;6187869;23;20028;-86
2022/03/05 00:33:39;;;;;;;14.23;7.30;;;;;;;-144.19;100.00;78914.44;6187418;23;20017;-87
2022/03/05 00:36:06;;;;;;;16.73;7.30;;;;;;;-144.19;100.00;78894.75;6212670;23;20017;-87
2022/03/05 00:38:33;;;;;;;12.25;6.95;;;;;;;-144.19;100.00;78908.53;6187387;23;20327;-90
2022/03/05 00:40:59;;;;;;;15.80;8.43;;;;;;;-144.19;100.00;78922.31;6187138;23;20020;-90
2022/03/05 00:43:26;;;;;;;11.85;6.65;;;;;;;-144.19;100.00;78914.44;6187273;23;20262;-89
2022/03/05 00:45:53;;;;;;;14.50;6.60;;;;;;;-144.19;100.00;78936.09;6202427;23;20036;-89
2022/03/05 00:48:23;;;;;;;13.63;6.63;;;;;;;-144.19;100.00;78951.88;6209104;23;20020;-88
2022/03/05 00:50:53;;;;;;;15.23;6.97;;;;;;;-144.19;100.00;78953.84;6207821;23;20584;-87
2022/03/05 00:53:21;;;;;;;;;;;;;;;-144.19;100.00;78969.59;6201025;23;20012;-87
2022/03/05 00:55:54;;;;;;;15.52;6.70;;;;;;;-144.19;100.00;78991.25;6204714;23;19916;-88
2022/03/05 00:58:21;;;;;;;;;;;;;;;-144.19;100.00;79008.97;6208505;23;20021;-88
2022/03/05 01:00:48;;;;;;;12.90;6.50;;;;;;;-144.19;100.00;79024.75;6207970;23;19916;-87
2022/03/05 01:03:19;;;;;;;13.32;6.85;;;;;;;-144.19;100.00;79024.75;6209055;23;20016;-88
2022/03/05 01:05:54;;;;;;;16.95;8.25;;;;;;;-144.19;100.00;79020.81;6209912;23;20021;-87
2022/03/05 01:08:27;;;;;;;14.85;7.00;;;;;;;-144.19;100.00;79020.81;6234677;23;20021;-90
2022/03/05 01:10:55;;;;;;;13.57;6.68;;;;;;;-144.19;100.00;79040.50;6211648;23;20026;-88
2022/03/05 01:13:22;;;;;;;13.30;6.95;;;;;;;-144.19;100.00;79044.44;6207518;23;20013;-88
2022/03/05 01:15:52;;;;;;;12.95;6.75;;;;;;;-144.19;100.00;79048.38;6207429;23;20128;-89
2022/03/05 01:18:20;;;;;;;14.02;6.97;;;;;;;-144.19;100.00;79034.59;6208267;23;20596;-90
2022/03/05 01:20:56;;;;;;;12.95;7.50;;;;;;;-144.19;100.00;79032.63;6207530;23;20024;-90
2022/03/05 01:23:30;;;;;;;14.35;7.13;;;;;;;-144.19;100.00;79032.63;6207112;23;20063;-88
2022/03/05 01:25:57;;;;;;;13.20;6.85;;;;;;;-144.19;100.00;79028.69;6208076;23;20040;-88
2022/03/05 01:28:27;;;;;;;15.63;7.15;;;;;;;-144.19;100.00;79050.34;6208866;23;20342;-90
2022/03/05 01:30:56;;;;;;;11.80;6.70;;;;;;;-144.19;100.00;79058.22;6206618;23;20020;-88
2022/03/05 01:33:29;;;;;;;15.93;7.45;;;;;;;-144.19;100.00;79064.13;6198956;23;20067;-89
2022/03/05 01:35:57;;;;;;;12.50;6.85;;;;;;;-144.19;100.00;79075.94;6205640;23;20027;-87
2022/03/05 01:38:39;;;;;;;14.23;7.35;;;;;;;-144.19;100.00;79075.94;6207649;23;20027;-89
2022/03/05 01:41:10;;;;;;;13.32;7.10;;;;;;;-144.19;100.00;79068.06;6208269;23;20021;-88
2022/03/05 01:43:40;;;;;;;14.82;7.30;;;;;;;-144.19;100.00;79068.06;6207949;23;20017;-88
2022/03/05 01:46:12;;;;;;;13.57;7.35;;;;;;;-144.19;100.00;79068.06;6207727;23;20036;-87
2022/03/05 01:48:42;;;;;;;12.68;7.57;;;;;;;-144.19;100.00;79079.88;6209454;23;20012;-89
2022/03/05 01:51:10;;;;;;;13.88;6.72;;;;;;;-144.19;100.00;79083.81;6209810;23;20068;-92
2022/03/05 01:53:48;;;;;;;14.48;7.60;;;;;;;-144.19;100.00;79073.97;6208811;23;20047;-90
2022/03/05 01:56:19;;;;;;;14.00;8.07;;;;;;;-144.19;100.00;79083.81;6208581;23;20047;-88
2022/03/05 01:58:49;;;;;;;15.18;8.18;;;;;;;-144.19;100.00;79091.72;6206206;23;20017;-90
2022/03/05 02:01:16;;;;;;;12.75;7.13;;;;;;;-144.19;100.00;79101.56;6233756;23;20021;-87
2022/03/05 02:03:43;;;;;;;14.10;8.10;;;;;;;-144.19;100.00;79091.72;6209842;23;20012;-87
2022/03/05 02:06:13;;;;;;;15.45;8.05;;;;;;;-144.19;100.00;79099.59;6210232;23;20070;-88
2022/03/05 02:08:43;;;;;;;13.45;7.28;;;;;;;-144.19;100.00;79107.47;6210211;23;20040;-88
2022/03/05 02:11:13;;;;;;;15.07;7.78;;;;;;;-144.19;100.00;79125.19;6210077;23;20051;-90
2022/03/05 02:13:43;;;;;;;16.48;7.80;;;;;;;-144.19;100.00;79127.16;6208074;23;20047;-89
2022/03/05 02:16:11;;;;;;;17.77;8.25;;;;;;;-144.19;100.00;79119.28;6210222;23;20031;-88
2022/03/05 02:18:49;;;;;;;16.25;7.78;;;;;;;-144.19;100.00;79113.38;6210765;23;20022;-88
2022/03/05 02:21:22;;;;;;;15.82;7.78;;;;;;;-144.19;100.00;79111.41;6208014;23;20077;-88
2022/03/05 02:23:50;;;;;;;13.95;7.07;;;;;;;-144.19;100.00;79109.44;6235483;23;20028;-87
2022/03/05 02:26:50;;;;;;;17.45;7.63;;;;;;;-144.19;100.00;79087.78;6211464;23;20035;-87
2022/03/05 02:29:19;;;;;;;14.05;6.88;;;;;;;-144.19;100.00;79091.72;6210098;23;20434;-87
2022/03/05 02:31:47;;;;;;;15.40;7.70;;;;;;;-144.19;100.00;79091.72;6211837;23;20074;-88
2022/03/05 02:34:14;;;;;;;15.02;7.18;;;;;;;-144.19;100.00;79097.63;6211860;23;20016;-84
2022/03/05 02:36:42;;;;;;;15.60;7.97;;;;;;;-144.19;100.00;79091.72;6238096;23;20417;-86
2022/03/05 02:39:09;;;;;;;17.20;8.05;;;;;;;-144.19;100.00;79107.47;6212400;23;20024;-86
2022/03/05 02:41:37;;;;;;;15.68;7.55;;;;;;;-144.19;100.00;79099.59;6210877;23;20035;-86
2022/03/05 02:44:09;;;;;;;14.38;7.30;;;;;;;-144.19;100.00;79087.78;6210894;23;20068;-86
2022/03/05 02:46:37;;;;;;;14.50;7.95;;;;;;;-144.19;100.00;79095.66;6212087;23;20013;-86
2022/03/05 02:49:04;;;;;;;16.33;8.57;;;;;;;-144.19;100.00;79097.63;6211979;23;20024;-86
2022/03/05 02:51:32;;;;;;;16.42;7.10;;;;;;;-144.19;100.00;79087.78;6237199;23;20021;-86
2022/03/05 02:53:59;;;;;;;;;;;;;;;-144.19;100.00;79079.88;6210764;23;20051;-86
2022/03/05 02:56:39;;;;;;;13.75;7.25;;;;;;;-144.19;100.00;79099.59;6211831;23;20244;-86
2022/03/05 02:59:12;;;;;;;18.52;8.38;;;;;;;-144.19;100.00;79105.50;6211771;23;20042;-85
2022/03/05 03:01:39;;;;;;;15.95;8.43;;;;;;;-144.19;100.00;79129.13;6233823;23;20020;-85
2022/03/05 03:04:07;;;;;;;16.20;8.43;;;;;;;-144.19;100.00;79123.22;6235135;23;20043;-85
2022/03/05 03:06:38;;;;;;;16.33;8.15;;;;;;;-144.19;100.00;79125.19;6212182;23;20047;-86
2022/03/05 03:09:11;;;;;;;16.88;8.20;;;;;;;-144.19;100.00;79115.34;6210974;23;20024;-86
2022/03/05 03:11:42;;;;;;;16.40;7.85;;;;;;;-144.19;100.00;79103.53;6210289;23;20021;-86
2022/03/05 03:14:15;;;;;;;17.15;7.97;;;;;;;-144.19;100.00;79107.47;6234433;23;20021;-86
2022/03/05 03:16:47;;;;;;;17.67;9.07;;;;;;;-144.19;100.00;79099.59;6237237;23;20072;-86
2022/03/05 03:19:23;;;;;;;17.95;8.40;;;;;;;-144.19;100.00;79107.47;6210623;23;20020;-85
2022/03/05 03:21:57;;;;;;;16.20;7.65;;;;;;;-144.19;100.00;79070.03;6209763;23;20060;-86
2022/03/05 03:24:27;;;;;;;16.05;7.75;;;;;;;-144.19;100.00;79072.00;6210490;23;20017;-85
2022/03/05 03:27:00;;;;;;;16.85;8.80;;;;;;;-144.19;100.00;79087.78;6235722;23;20075;-86
2022/03/05 03:30:35;;;;;;;17.35;8.45;;;;;;;-144.19;100.00;79101.56;6210009;23;20020;-85
2022/03/05 03:33:14;;;;;;;15.52;7.13;;;;;;;-144.19;100.00;79119.28;6103793;23;20041;-86
2022/03/05 03:35:46;;;;;;;14.40;7.43;;;;;;;-144.19;100.00;79121.25;6124810;23;20044;-86
2022/03/05 03:38:19;;;;;;;16.33;7.50;;;;;;;-144.19;100.00;79105.50;6236227;23;20055;-86
2022/03/05 03:40:46;;;;;;;18.13;7.85;;;;;;;-144.19;100.00;79111.41;6237500;23;20031;-86
2022/03/05 03:43:19;;;;;;;15.70;8.27;;;;;;;-144.19;100.00;79107.47;6209205;23;20024;-85
2022/03/05 03:45:58;;;;;;;15.57;7.57;;;;;;;-144.19;100.00;79089.72;6213200;23;20051;-86
2022/03/05 03:48:25;;;;;;;14.32;7.18;;;;;;;-144.19;100.00;79068.06;6211733;23;20032;-86
2022/03/05 03:50:58;;;;;;;13.88;7.85;;;;;;;-144.19;100.00;79040.50;6235707;23;20323;-85
2022/03/05 03:53:25;;;;;;;16.95;7.82;;;;;;;-144.19;100.00;79044.44;6210203;23;20040;-86
2022/03/05 03:55:56;;;;;;;16.00;7.43;;;;;;;-144.19;100.00;79044.44;6209227;23;20047;-86
2022/03/05 03:58:26;;;;;;;15.40;8.05;;;;;;;-144.19;100.00;79040.50;6232730;23;20020;-87
2022/03/05 04:01:13;;;;;;;;;;;;;;;;;;;;;
2022/03/05 04:03:44;;;;;;;12.65;6.72;;;;;;;-144.19;100.00;79036.56;6236693;23;20021;-86
2022/03/05 04:06:14;;;;;;;13.27;7.32;;;;;;;-144.19;100.00;79034.59;6236129;23;20021;-86
2022/03/05 04:08:44;;;;;;;18.35;7.45;;;;;;;-144.19;100.00;79028.69;6235863;23;20012;-86
2022/03/05 04:11:18;;;;;;;19.70;10.20;;;;;;;-144.19;100.00;79032.63;6210833;23;20059;-86
2022/03/05 04:13:48;;;;;;;14.90;7.32;;;;;;;-144.19;100.00;79036.56;6209921;23;20020;-85
2022/03/05 04:16:18;;;;;;;;;;;;;;;-144.19;100.00;79028.69;6210710;23;20052;-86
2022/03/05 04:19:00;;;;;;;15.20;6.80;;;;;;;-144.19;100.00;79024.75;6212152;23;19950;-85
2022/03/05 04:21:28;;;;;;;13.77;7.32;;;;;;;-144.19;100.00;79028.69;6209716;23;20021;-86
2022/03/05 04:24:01;;;;;;;15.27;7.93;;;;;;;-144.19;100.00;79028.69;6208880;23;20020;-86
2022/03/05 04:26:34;;;;;;;15.10;7.80;;;;;;;-144.19;100.00;79036.56;6233063;23;20025;-86
2022/03/05 04:29:05;;;;;;;12.73;6.57;;;;;;;-144.19;100.00;79032.63;6208423;23;20032;-86
2022/03/05 04:31:33;;;;;;;15.10;7.10;;;;;;;-144.19;100.00;79040.50;6207853;23;20031;-85
2022/03/05 04:34:03;;;;;;;13.48;6.88;;;;;;;-144.19;100.00;79044.44;6208790;23;20040;-86
2022/03/05 04:36:33;;;;;;;15.52;6.90;;;;;;;-144.19;100.00;79048.38;6235121;23;20036;-86
2022/03/05 04:39:03;;;;;;;17.60;7.80;;;;;;;-144.19;100.00;79044.44;6235936;23;20153;-86
2022/03/05 04:41:42;;;;;;;13.23;6.28;;;;;;;-144.19;100.00;79052.31;6210072;23;20020;-86
2022/03/05 04:44:13;;;;;;;13.55;6.82;;;;;;;-144.19;100.00;79048.38;6235629;23;20116;-86
2022/03/05 04:47:04;;;;;;;18.48;7.43;;;;;;;-144.19;100.00;79044.44;6194720;23;20031;-86
2022/03/05 04:49:36;;;;;;;16.73;7.00;;;;;;;-144.19;100.00;79042.47;6230450;23;20020;-85
2022/03/05 04:52:03;;;;;;;;;;;;;;;-144.19;100.00;79048.38;6199156;23;20385;-86
2022/03/05 04:54:33;;;;;;;15.13;7.17;;;;;;;-144.19;100.00;79044.44;6206233;23;20333;-85
2022/03/05 04:57:00;;;;;;;17.17;7.65;;;;;;;-144.19;100.00;79042.47;6206989;23;20044;-86
2022/03/05 04:59:28;;;;;;;16.02;7.55;;;;;;;-144.19;100.00;79042.47;6208710;23;20026;-86
2022/03/05 05:01:56;;;;;;;12.38;6.82;;;;;;;-144.19;100.00;79048.38;6190075;23;20019;-83
2022/03/05 05:04:23;;;;;;;16.42;7.30;;;;;;;-144.19;100.00;79048.38;6183567;23;20017;-84
2022/03/05 05:06:50;;;;;;;16.67;7.90;;;;;;;-144.19;100.00;79054.28;6157429;23;20025;-86
2022/03/05 05:09:16;;;;;;;15.23;7.60;;;;;;;-144.19;100.00;79048.38;6157419;23;20025;-86
2022/03/05 05:11:43;;;;;;;14.25;7.03;;;;;;;-144.19;100.00;79050.34;6183343;23;20104;-87
2022/03/05 05:14:10;;;;;;;18.27;8.02;;;;;;;-144.19;100.00;79044.44;6183264;23;20485;-86
2022/03/05 05:16:37;;;;;;;15.63;6.65;;;;;;;-144.19;100.00;79044.44;6157843;23;20027;-86
2022/03/05 05:21:49;;;;;;;18.13;8.68;;;;;;;-144.19;100.00;79056.25;6183435;23;20111;-87
2022/03/05 05:24:15;;;;;;;16.92;7.40;;;;;;;-144.19;100.00;79058.22;6182406;23;20457;-84
2022/03/05 05:26:42;;;;;;;15.38;7.82;;;;;;;-144.19;100.00;79042.47;6156869;23;20021;-85
2022/03/05 05:29:08;;;;;;;14.82;7.43;;;;;;;-144.19;100.00;79044.44;6157762;23;20083;-86
2022/03/05 05:31:58;;;;;;;16.08;8.57;;;;;;;-144.19;100.00;79062.16;6182367;23;20064;-82
2022/03/05 05:34:25;;;;;;;16.40;7.80;;;;;;;-144.19;100.00;79058.22;6156554;23;20476;-86
2022/03/05 05:36:51;;;;;;;18.67;7.70;;;;;;;-144.19;100.00;79072.00;6156730;23;20100;-85
2022/03/05 05:39:18;;;;;;;16.73;7.03;;;;;;;-144.19;100.00;79081.84;6156798;23;20385;-87
2022/03/05 05:41:44;;;;;;;18.33;7.85;;;;;;;-144.19;100.00;79087.78;6182859;23;20031;-84
2022/03/05 05:44:11;;;;;;;17.52;8.38;;;;;;;-144.19;100.00;79083.81;6155935;23;20016;-86
2022/03/05 05:46:38;;;;;;;17.50;8.05;;;;;;;-144.19;100.00;79075.94;6155778;23;20021;-85
2022/03/05 05:49:04;;;;;;;19.25;8.15;;;;;;;-144.19;100.00;79083.81;6182597;23;20024;-86
2022/03/05 05:51:32;;;;;;;16.77;7.07;;;;;;;-144.19;100.00;79089.72;6156290;23;20020;-85
2022/03/05 05:53:59;;;;;;;15.10;8.00;;;;;;;-144.19;100.00;79095.66;6182599;23;20021;-85
2022/03/05 05:56:25;;;;;;;15.55;8.07;;;;;;;-144.19;100.00;79085.78;6153053;23;20027;-84
2022/03/05 05:58:52;;;;;;;17.65;8.18;;;;;;;-144.19;100.00;79087.78;6156448;23;20123;-86
2022/03/05 06:01:18;;;;;;;18.70;8.40;;;;;;;-144.19;100.00;79087.78;6158794;23;20100;-84
2022/03/05 06:03:45;;;;;;;17.77;7.72;;;;;;;-144.19;100.00;79075.94;6192548;23;20347;-87
2022/03/05 06:06:12;;;;;;;16.20;8.07;;;;;;;-144.19;100.00;79075.94;6159010;23;20101;-86
2022/03/05 06:08:39;;;;;;;15.98;8.27;;;;;;;-144.19;100.00;79075.94;6184695;23;20084;-83
2022/03/05 06:11:06;;;;;;;17.67;8.27;;;;;;;-144.19;100.00;79072.00;6208599;23;20103;-85
2022/03/05 06:13:33;;;;;;;19.17;9.32;;;;;;;-144.19;100.00;79070.03;6184414;23;20295;-83
2022/03/05 06:15:59;;;;;;;19.05;8.73;;;;;;;-144.19;100.00;79072.00;6209076;23;20021;-83
2022/03/05 06:18:25;;;;;;;19.65;9.82;;;;;;;-144.19;100.00;79066.09;6183662;23;20477;-84
2022/03/05 06:20:54;;;;;;;18.20;8.40;;;;;;;-144.19;100.00;79054.28;6182831;23;20484;-84
2022/03/05 06:23:21;;;;;;;18.42;8.88;;;;;;;-144.19;100.00;79062.16;6184294;23;20388;-83
2022/03/05 06:25:47;;;;;;;17.35;8.68;;;;;;;-144.19;100.00;79070.03;6183943;23;20123;-83
2022/03/05 06:28:13;;;;;;;18.25;9.68;;;;;;;-144.19;100.00;79056.25;6186179;23;20108;-84
2022/03/05 06:30:40;;;;;;;18.47;9.30;;;;;;;-144.19;100.00;79048.38;6184681;23;20348;-83
2022/03/05 06:33:06;;;;;;;20.92;10.43;;;;;;;-144.19;100.00;79050.34;6182927;23;20272;-84
2022/03/05 06:35:33;;;;;;;23.70;9.43;;;;;;;-144.19;100.00;79048.38;6183795;23;20021;-85
2022/03/05 06:37:59;;;;;;;18.02;9.52;;;;;;;-144.19;100.00;79060.19;6186398;23;20104;-83
2022/03/05 06:40:26;;;;;;;18.33;9.35;;;;;;;-144.19;100.00;79079.88;6207740;23;20479;-84
2022/03/05 06:42:52;;;;;;;19.50;9.88;;;;;;;-144.19;100.00;79091.72;6185427;23;20021;-85
2022/03/05 06:45:18;;;;;;;21.05;9.73;;;;;;;-144.19;100.00;79091.72;6184327;23;20072;-85
2022/03/05 06:47:45;;;;;;;20.42;10.45;;;;;;;-144.19;100.00;79113.38;6184540;23;20081;-85
2022/03/05 06:50:12;;;;;;;19.95;9.55;;;;;;;-144.19;100.00;79123.22;6208420;23;20368;-87
2022/03/05 06:52:38;;;;;;;25.67;9.90;;;;;;;-144.19;100.00;79131.09;6183319;23;20025;-85
2022/03/05 06:55:06;;;;;;;16.20;8.57;;;;;;;-144.19;100.00;79133.06;6208896;23;20017;-86
2022/03/05 06:57:34;;;;;;;18.67;9.48;;;;;;;-144.19;100.00;79133.06;6181749;23;20346;-84
2022/03/05 07:00:00;;;;;;;21.13;11.10;;;;;;;-144.19;100.00;79133.06;6185611;23;20020;-83
2022/03/05 07:02:26;;;;;;;24.33;11.32;;;;;;;-144.19;100.00;79127.16;6185201;23;20021;-86
2022/03/05 07:04:53;;;;;;;19.98;9.55;;;;;;;-144.19;100.00;79131.09;6184508;23;20100;-86
2022/03/05 07:07:20;;;;;;;21.63;10.95;;;;;;;-144.19;100.00;79123.22;6214284;23;20384;-86
2022/03/05 07:09:46;;;;;;;19.95;9.73;;;;;;;-144.19;100.00;79113.38;6189202;23;20024;-84
2022/03/05 07:12:12;;;;;;;23.80;10.88;;;;;;;-144.19;100.00;79095.66;6186857;23;20027;-84
2022/03/05 07:14:39;;;;;;;21.58;10.77;;;;;;;-144.19;100.00;79075.94;6213816;23;20361;-84
2022/03/05 07:17:05;;;;;;;22.70;10.80;;;;;;;-144.19;100.00;79072.00;6188144;23;20091;-86
2022/03/05 07:19:31;;;;;;;22.23;10.65;;;;;;;-144.19;100.00;79056.25;6187890;23;20032;-86
2022/03/05 07:21:58;;;;;;;23.05;10.93;;;;;;;-144.19;100.00;79042.47;6185750;23;20047;-87
2022/03/05 07:24:25;;;;;;;21.63;10.25;;;;;;;-144.19;100.00;79036.56;6187059;23;20104;-87
2022/03/05 07:26:51;;;;;;;25.83;11.02;;;;;;;-144.19;100.00;79016.84;6189016;23;20071;-86
2022/03/05 07:29:17;;;;;;;23.73;11.20;;;;;;;-144.19;100.00;78997.16;6189099;23;20027;-88
2022/03/05 07:31:45;;;;;;;24.85;12.05;;;;;;;-144.19;100.00;78989.28;6188834;23;20020;-87
2022/03/05 07:34:11;;;;;;;25.08;11.93;;;;;;;-144.19;100.00;78977.47;6215238;23;20024;-86
2022/03/05 07:36:38;;;;;;;26.17;11.77;;;;;;;-144.19;100.00;78969.59;6214405;23;20042;-86
2022/03/05 07:39:07;;;;;;;22.23;11.57;;;;;;;-144.19;100.00;78953.84;6188988;23;20021;-86
2022/03/05 07:41:36;;;;;;;23.95;11.82;;;;;;;-144.19;100.00;78951.88;6190246;23;20028;-85
2022/03/05 07:44:04;;;;;;;25.63;11.65;;;;;;;-144.19;100.00;78938.06;6190194;23;20017;-86
2022/03/05 07:46:32;;;;;;;24.55;11.82;;;;;;;-144.19;100.00;78940.03;6192141;23;20044;-87
2022/03/05 07:49:00;;;;;;;24.92;12.00;;;;;;;-144.19;100.00;78930.19;6192117;23;20155;-85
2022/03/05 07:51:26;;;;;;;27.05;12.57;;;;;;;-144.19;100.00;78918.38;6216077;23;20357;-86
2022/03/05 07:53:52;;;;;;;23.40;12.00;;;;;;;-144.19;100.00;78902.63;6216916;23;20033;-84
2022/03/05 07:56:20;;;;;;;23.33;12.65;;;;;;;-144.19;100.00;78886.88;6189613;23;20126;-87
2022/03/05 07:58:47;;;;;;;23.40;10.75;;;;;;;-144.19;100.00;78880.97;6190173;23;20017;-86
2022/03/05 08:01:13;;;;;;;24.90;11.73;;;;;;;-144.19;100.00;78873.09;6189273;23;20023;-86
2022/03/05 08:03:40;;;;;;;25.60;13.23;;;;;;;-144.19;100.00;78867.16;6215521;23;20024;-87
2022/03/05 08:06:07;;;;;;;24.10;12.43;;;;;;;-144.19;100.00;78857.31;6190653;23;20020;-85
2022/03/05 08:08:33;;;;;;;23.35;12.18;;;;;;;-144.19;100.00;78845.50;6190271;23;20044;-88
2022/03/05 08:11:00;;;;;;;26.60;13.10;;;;;;;-144.19;100.00;78833.69;6188725;23;20025;-88
2022/03/05 08:13:29;;;;;;;29.63;15.02;;;;;;;-144.19;100.00;78833.69;6189754;23;20024;-88
2022/03/05 08:15:56;;;;;;;28.30;12.45;;;;;;;-144.19;100.00;78823.84;6189666;23;20013;-88
2022/03/05 08:18:26;;;;;;;30.25;13.68;;;;;;;-144.19;100.00;78812.03;6190334;23;20082;-88
2022/03/05 08:20:52;;;;;;;26.23;13.20;;;;;;;-144.19;100.00;78804.16;6214793;23;20023;-87
2022/03/05 08:23:22;;;;;;;31.70;14.23;;;;;;;-144.19;100.00;78800.22;6188033;23;20043;-88
2022/03/05 08:25:48;;;;;;;29.00;14.13;;;;;;;-144.19;100.00;78794.31;6188259;23;20044;-88
2022/03/05 08:28:17;;;;;;;27.07;13.77;;;;;;;-144.19;100.00;78776.56;6188383;23;20030;-88
2022/03/05 08:30:43;;;;;;;30.58;13.30;;;;;;;-144.19;100.00;78764.75;6189017;23;20625;-87
2022/03/05 08:33:10;;;;;;;32.05;13.80;;;;;;;-144.19;100.00;78756.88;6185634;23;20020;-87
2022/03/05 08:35:36;;;;;;;30.43;13.70;;;;;;;-144.19;100.00;78754.91;6186947;23;20027;-87
2022/03/05 08:38:03;;;;;;;29.75;14.48;;;;;;;-144.19;100.00;78752.94;6185213;23;20104;-89
2022/03/05 08:40:29;;;;;;;29.10;13.43;;;;;;;-144.19;100.00;78737.19;6187888;23;20021;-89
2022/03/05 08:42:55;;;;;;;31.05;14.80;;;;;;;-144.19;100.00;78717.50;6186230;23;20031;-87
2022/03/05 08:45:27;;;;;;;30.75;14.18;;;;;;;-144.19;100.00;78711.59;6213768;23;20023;-87
2022/03/05 08:47:54;;;;;;;30.02;15.00;;;;;;;-144.19;100.00;78697.78;6187787;23;20021;-87
2022/03/05 08:50:21;;;;;;;26.73;13.98;;;;;;;-144.19;100.00;78693.84;6214339;23;20099;-86
2022/03/05 08:52:47;;;;;;;33.92;14.75;;;;;;;-144.19;100.00;78678.09;6186769;23;20024;-86
2022/03/05 08:55:16;;;;;;;32.47;14.50;;;;;;;-144.19;100.00;78664.31;6187976;23;20107;-86
2022/03/05 08:57:43;;;;;;;31.90;15.73;;;;;;;-144.19;100.00;78650.53;6187440;23;20595;-88
2022/03/05 09:00:11;;;;;;;;;;;;;;;-144.19;100.00;78644.63;6214899;23;20024;-88
2022/03/05 09:02:42;;;;;;;30.65;13.80;;;;;;;-144.19;100.00;78630.84;6185095;23;19932;-88
2022/03/05 09:05:14;;;;;;;31.88;15.52;;;;;;;-144.19;100.00;78613.09;6187904;23;20508;-86
2022/03/05 09:07:47;;;;;;;30.55;14.18;;;;;;;-144.19;100.00;78603.25;6186047;23;20092;-87
2022/03/05 09:10:13;;;;;;;30.40;15.27;;;;;;;-144.19;100.00;78599.31;6186334;23;20100;-88
2022/03/05 09:12:40;;;;;;;31.98;16.00;;;;;;;-144.19;100.00;78583.56;6186437;23;20028;-87
2022/03/05 09:15:46;;;;;;;31.48;16.25;;;;;;;-144.19;100.00;78571.75;6213794;23;20021;-86
2022/03/05 09:19:12;;;;;;;38.38;17.42;;;;;;;-144.19;100.00;78540.25;6190102;23;20361;-87
2022/03/05 09:21:49;;;;;;;31.63;17.38;;;;;;;-144.19;100.00;78524.50;6187657;23;20020;-85
2022/03/05 09:24:33;;;;;;;35.22;16.10;;;;;;;-144.19;100.00;78524.50;6187583;23;20016;-86
2022/03/05 09:27:00;;;;;;;28.67;16.38;;;;;;;-144.19;100.00;78512.66;6186752;23;20043;-87
2022/03/05 09:29:30;;;;;;;30.67;16.05;;;;;;;-144.19;100.00;78494.94;6214051;23;20071;-86
2022/03/05 09:31:56;;;;;;;38.53;18.50;;;;;;;-144.19;100.00;78473.28;6186395;23;20099;-86
2022/03/05 09:34:50;;;;;;;33.92;16.80;;;;;;;-144.19;100.00;78469.34;6189330;23;20016;-86
2022/03/05 09:37:56;;;;;;;34.85;16.92;;;;;;;-144.19;100.00;78447.69;6193991;23;20020;-86
2022/03/05 09:40:41;;;;;;;30.83;15.43;;;;;;;-144.19;100.00;78416.19;6187820;23;20017;-86
2022/03/05 09:43:54;;;;;;;31.55;15.77;;;;;;;-144.19;100.00;78414.19;6125907;23;20027;-86
2022/03/05 09:47:03;;;;;;;28.65;16.10;;;;;;;-144.19;100.00;78400.41;6173976;23;20017;-87
2022/03/05 09:49:54;;;;;;;31.80;16.02;;;;;;;-144.19;100.00;78382.69;6213455;23;20369;-86
2022/03/05 09:52:55;;;;;;;29.13;15.55;;;;;;;-144.19;100.00;78353.16;6189954;23;20071;-86
2022/03/05 09:55:51;;;;;;;31.20;16.63;;;;;;;-144.19;100.00;78345.28;6189135;23;20016;-85
2022/03/05 09:58:39;;;;;;;28.73;15.30;;;;;;;-144.19;100.00;78335.44;6191948;23;20107;-86
2022/03/05 10:01:20;;;;;;;31.63;16.02;;;;;;;-144.19;100.00;78311.81;6186958;23;20461;-84
2022/03/05 10:03:48;;;;;;;;;;;;;;;-144.19;100.00;78296.03;6181114;23;20717;-85
2022/03/05 10:06:45;;;;;;;33.90;16.38;;;;;;;-144.19;100.00;78278.31;6187176;23;19962;-86
2022/03/05 10:09:49;;;;;;;32.55;15.65;;;;;;;-144.19;100.00;78256.66;6186525;23;20016;-85
2022/03/05 10:12:40;;;;;;;34.92;17.30;;;;;;;-144.19;100.00;78244.84;6097286;23;20033;-85
2022/03/05 10:15:25;;;;;;;30.50;16.38;;;;;;;-144.19;100.00;78195.63;6098419;23;20018;-86
2022/03/05 10:18:35;;;;;;;28.70;15.20;;;;;;;-144.19;100.00;78185.78;6096880;23;20054;-84
2022/03/05 10:25:31;;;;;;;27.77;15.82;;;;;;;-144.19;100.00;78126.69;6062377;23;20015;-85
2022/03/05 10:28:43;;;;;;;30.38;15.32;;;;;;;-144.19;100.00;78095.19;6042543;23;20146;-86
2022/03/05 10:32:15;;;;;;;32.33;16.50;;;;;;;-144.19;100.00;78059.75;6098726;23;20121;-87
2022/03/05 10:35:13;;;;;;;;;;;;;;;;;;;;;
2022/03/05 10:37:59;;;;;;;27.25;15.90;;;;;;;-144.19;100.00;77876.63;6119935;23;20474;-87
2022/03/05 10:40:32;;;;;;;30.15;16.95;;;;;;;-144.19;100.00;77803.75;6097882;23;20021;-87
2022/03/05 10:43:07;;;;;;;28.02;15.82;;;;;;;-144.19;92.76;77723.03;6120562;23;20057;-87
2022/03/05 10:45:59;;;;;;;32.50;16.75;;;;;;;-144.19;89.42;77713.19;6101973;23;20020;-91
2022/03/05 10:48:45;;;;;;;26.25;16.15;;;;;;;-144.19;87.18;77579.31;6099578;23;20026;-88
2022/03/05 10:51:19;;;;;;;28.98;16.52;;;;;;;-144.19;85.44;77539.91;6189696;23;20021;-88
2022/03/05 10:53:53;;;;;;;29.00;16.77;;;;;;;-144.19;81.25;77459.19;6189026;23;20048;-86
2022/03/05 10:56:32;;;;;;;28.05;15.95;;;;;;;-144.19;75.57;77476.91;6193557;23;20019;-86
2022/03/05 10:59:10;;;;;;;29.95;16.42;;;;;;;-144.19;75.59;77406.03;6193244;23;20063;-88
2022/03/05 11:01:43;;;;;;;28.95;17.45;;;;;;;-144.19;75.93;77299.72;6195429;23;20099;-85
2022/03/05 11:06:57;;;;;;;28.90;18.52;;;;;;;-144.19;70.58;77240.66;6170395;23;20096;-87
2022/03/05 11:10:08;;;;;;;28.02;16.27;;;;;;;-144.19;66.30;77394.22;6172674;23;20418;-87
2022/03/05 11:12:51;;;;;;;30.40;17.50;;;;;;;-144.19;67.60;77248.53;6147424;23;20021;-88
2022/03/05 11:16:12;;;;;;;29.30;17.10;;;;;;;-144.19;65.47;77321.38;6169701;23;20018;-86
2022/03/05 11:19:07;;;;;;;30.90;17.30;;;;;;;-144.19;65.33;77280.03;6060794;23;20022;-87
2022/03/05 11:21:37;;;;;;;29.00;18.67;;;;;;;-144.19;61.92;77224.91;6083355;23;20055;-89
2022/03/05 11:24:23;;;;;;;28.52;17.17;;;;;;;-144.19;63.03;77319.41;6184453;23;20028;-87
2022/03/05 11:26:59;;;;;;;27.52;17.65;;;;;;;-144.19;62.14;77211.13;6171946;23;20018;-87
2022/03/05 11:30:03;;;;;;;28.35;16.63;;;;;;;-144.19;59.66;77219.00;6171447;23;20246;-88
2022/03/05 11:32:43;;;;;;;30.33;17.90;;;;;;;-144.19;62.93;77154.03;6170497;23;20021;-88
2022/03/05 11:35:33;;;;;;;26.63;16.60;;;;;;;-144.19;58.07;77106.78;6171112;23;20029;-89
2022/03/05 11:38:08;;;;;;;28.05;17.60;;;;;;;-144.19;55.83;77039.84;6170515;23;20028;-88
2022/03/05 11:40:42;;;;;;;25.83;16.25;;;;;;;-144.19;56.31;77283.97;6170050;23;20032;-87